sensor_id;sensor_type;location;lat;lon;timestamp;P1;P2;P0
55754;PMS5003;41674;52.290;-1.474;2023-05-07T00:00:38;10;10;
55754;PMS5003;41674;52.290;-1.474;2023-05-07T00:03:09;14;11;
55754;PMS5003;41674;52.290;-1.474;2023-05-07T00:05:37;10;10;
55754;PMS5003;41674;52.290;-1.474;2023-05-07T00:08:07;10;8;
55754;PMS5003;41674;52.290;-1.474;2023-05-07T00:10:36;10;10;
55754;PMS5003;41674;52.290;-1.474;2023-05-07T00:13:05;13;13;
55754;PMS5003;41674;52.290;-1.474;2023-05-07T00:15:35;13;11;
55754;PMS5003;41674;52.290;-1.474;2023-05-07T00:18:05;11;10;
55754;PMS5003;41674;52.290;-1.474;2023-05-07T00:20:34;11;11;
55754;PMS5003;41674;52.290;-1.474;2023-05-07T00:23:04;15;14;
55754;PMS5003;41674;52.290;-1.474;2023-05-07T00:25:33;11;11;
55754;PMS5003;41674;52.290;-1.474;2023-05-07T00:28:03;14;13;
55754;PMS5003;41674;52.290;-1.474;2023-05-07T00:30:32;13;11;
55754;PMS5003;41674;52.290;-1.474;2023-05-07T00:33:02;14;12;
55754;PMS5003;41674;52.290;-1.474;2023-05-07T00:35:31;13;13;
55754;PMS5003;41674;52.290;-1.474;2023-05-07T00:38:00;16;13;
55754;PMS5003;41674;52.290;-1.474;2023-05-07T00:40:30;17;16;
55754;PMS5003;41674;52.290;-1.474;2023-05-07T00:43:00;14;14;
55754;PMS5003;41674;52.290;-1.474;2023-05-07T00:45:29;12;12;
55754;PMS5003;41674;52.290;-1.474;2023-05-07T00:48:00;14;14;
55754;PMS5003;41674;52.290;-1.474;2023-05-07T00:50:28;15;14;
55754;PMS5003;41674;52.290;-1.474;2023-05-07T00:52:58;22;20;
55754;PMS5003;41674;52.290;-1.474;2023-05-07T00:55:27;19;19;
55754;PMS5003;41674;52.290;-1.474;2023-05-07T00:57:57;21;19;
55754;PMS5003;41674;52.290;-1.474;2023-05-07T01:00:26;22;22;
55754;PMS5003;41674;52.290;-1.474;2023-05-07T01:02:55;23;23;
55754;PMS5003;41674;52.290;-1.474;2023-05-07T01:05:25;26;23;
55754;PMS5003;41674;52.290;-1.474;2023-05-07T01:07:54;31;26;
55754;PMS5003;41674;52.290;-1.474;2023-05-07T01:10:23;26;22;
55754;PMS5003;41674;52.290;-1.474;2023-05-07T01:12:53;24;24;
55754;PMS5003;41674;52.290;-1.474;2023-05-07T01:15:22;30;26;
55754;PMS5003;41674;52.290;-1.474;2023-05-07T01:17:52;29;24;
55754;PMS5003;41674;52.290;-1.474;2023-05-07T01:20:21;31;28;
55754;PMS5003;41674;52.290;-1.474;2023-05-07T01:22:50;28;23;
55754;PMS5003;41674;52.290;-1.474;2023-05-07T01:25:20;35;29;
55754;PMS5003;41674;52.290;-1.474;2023-05-07T01:27:49;33;32;
55754;PMS5003;41674;52.290;-1.474;2023-05-07T01:30:19;36;32;
55754;PMS5003;41674;52.290;-1.474;2023-05-07T01:32:49;30;28;
55754;PMS5003;41674;52.290;-1.474;2023-05-07T01:35:19;34;32;
55754;PMS5003;41674;52.290;-1.474;2023-05-07T01:37:47;32;30;
55754;PMS5003;41674;52.290;-1.474;2023-05-07T01:40:16;36;32;
55754;PMS5003;41674;52.290;-1.474;2023-05-07T01:42:45;31;26;
55754;PMS5003;41674;52.290;-1.474;2023-05-07T01:45:15;32;31;
55754;PMS5003;41674;52.290;-1.474;2023-05-07T01:47:45;32;30;
55754;PMS5003;41674;52.290;-1.474;2023-05-07T01:50:14;29;26;
55754;PMS5003;41674;52.290;-1.474;2023-05-07T01:52:44;26;25;
55754;PMS5003;41674;52.290;-1.474;2023-05-07T01:55:13;32;28;
55754;PMS5003;41674;52.290;-1.474;2023-05-07T01:57:42;35;29;
55754;PMS5003;41674;52.290;-1.474;2023-05-07T02:00:18;29;27;
55754;PMS5003;41674;52.290;-1.474;2023-05-07T02:02:41;29;26;
55754;PMS5003;41674;52.290;-1.474;2023-05-07T02:05:11;32;30;
55754;PMS5003;41674;52.290;-1.474;2023-05-07T02:07:40;25;24;
55754;PMS5003;41674;52.290;-1.474;2023-05-07T02:10:09;24;22;
55754;PMS5003;41674;52.290;-1.474;2023-05-07T02:12:39;26;24;
55754;PMS5003;41674;52.290;-1.474;2023-05-07T02:15:09;29;27;
55754;PMS5003;41674;52.290;-1.474;2023-05-07T02:17:39;25;24;
55754;PMS5003;41674;52.290;-1.474;2023-05-07T02:20:08;26;23;
55754;PMS5003;41674;52.290;-1.474;2023-05-07T02:22:37;28;24;
55754;PMS5003;41674;52.290;-1.474;2023-05-07T02:25:07;25;19;
55754;PMS5003;41674;52.290;-1.474;2023-05-07T02:27:37;25;25;
55754;PMS5003;41674;52.290;-1.474;2023-05-07T02:30:08;22;22;
55754;PMS5003;41674;52.290;-1.474;2023-05-07T02:32:36;25;23;
55754;PMS5003;41674;52.290;-1.474;2023-05-07T02:35:06;22;20;
55754;PMS5003;41674;52.290;-1.474;2023-05-07T02:37:35;26;22;
55754;PMS5003;41674;52.290;-1.474;2023-05-07T02:40:05;24;23;
55754;PMS5003;41674;52.290;-1.474;2023-05-07T02:42:33;21;20;
55754;PMS5003;41674;52.290;-1.474;2023-05-07T02:45:04;27;23;
55754;PMS5003;41674;52.290;-1.474;2023-05-07T02:47:33;21;20;
55754;PMS5003;41674;52.290;-1.474;2023-05-07T02:50:08;18;18;
55754;PMS5003;41674;52.290;-1.474;2023-05-07T02:52:32;19;18;
55754;PMS5003;41674;52.290;-1.474;2023-05-07T02:55:02;26;20;
55754;PMS5003;41674;52.290;-1.474;2023-05-07T02:57:31;21;18;
55754;PMS5003;41674;52.290;-1.474;2023-05-07T03:02:31;20;18;
55754;PMS5003;41674;52.290;-1.474;2023-05-07T03:05:00;23;20;
55754;PMS5003;41674;52.290;-1.474;2023-05-07T03:07:29;18;18;
55754;PMS5003;41674;52.290;-1.474;2023-05-07T03:09:59;16;16;
55754;PMS5003;41674;52.290;-1.474;2023-05-07T03:12:29;18;17;
55754;PMS5003;41674;52.290;-1.474;2023-05-07T03:14:58;23;20;
55754;PMS5003;41674;52.290;-1.474;2023-05-07T03:17:28;21;19;
55754;PMS5003;41674;52.290;-1.474;2023-05-07T03:19:57;21;20;
55754;PMS5003;41674;52.290;-1.474;2023-05-07T03:22:26;18;18;
55754;PMS5003;41674;52.290;-1.474;2023-05-07T03:24:56;22;19;
55754;PMS5003;41674;52.290;-1.474;2023-05-07T03:27:25;21;18;
55754;PMS5003;41674;52.290;-1.474;2023-05-07T03:29:55;15;15;
55754;PMS5003;41674;52.290;-1.474;2023-05-07T03:32:25;18;18;
55754;PMS5003;41674;52.290;-1.474;2023-05-07T03:34:55;20;18;
55754;PMS5003;41674;52.290;-1.474;2023-05-07T03:37:24;19;15;
55754;PMS5003;41674;52.290;-1.474;2023-05-07T03:39:53;19;15;
55754;PMS5003;41674;52.290;-1.474;2023-05-07T03:42:23;24;18;
55754;PMS5003;41674;52.290;-1.474;2023-05-07T03:44:53;16;16;
55754;PMS5003;41674;52.290;-1.474;2023-05-07T03:47:22;17;16;
55754;PMS5003;41674;52.290;-1.474;2023-05-07T03:49:51;17;16;
55754;PMS5003;41674;52.290;-1.474;2023-05-07T03:52:20;23;21;
55754;PMS5003;41674;52.290;-1.474;2023-05-07T03:54:50;18;16;
55754;PMS5003;41674;52.290;-1.474;2023-05-07T03:57:20;22;21;
55754;PMS5003;41674;52.290;-1.474;2023-05-07T03:59:49;17;13;
55754;PMS5003;41674;52.290;-1.474;2023-05-07T04:02:18;18;16;
55754;PMS5003;41674;52.290;-1.474;2023-05-07T04:04:48;18;17;
55754;PMS5003;41674;52.290;-1.474;2023-05-07T04:07:18;19;18;
55754;PMS5003;41674;52.290;-1.474;2023-05-07T04:09:47;21;17;
55754;PMS5003;41674;52.290;-1.474;2023-05-07T04:12:17;17;16;
55754;PMS5003;41674;52.290;-1.474;2023-05-07T04:14:47;20;17;
55754;PMS5003;41674;52.290;-1.474;2023-05-07T04:17:16;19;17;
55754;PMS5003;41674;52.290;-1.474;2023-05-07T04:19:46;14;13;
55754;PMS5003;41674;52.290;-1.474;2023-05-07T04:22:16;16;15;
55754;PMS5003;41674;52.290;-1.474;2023-05-07T04:24:45;17;15;
55754;PMS5003;41674;52.290;-1.474;2023-05-07T04:27:14;15;13;
55754;PMS5003;41674;52.290;-1.474;2023-05-07T04:29:44;16;14;
55754;PMS5003;41674;52.290;-1.474;2023-05-07T04:32:13;18;16;
55754;PMS5003;41674;52.290;-1.474;2023-05-07T04:34:43;16;13;
55754;PMS5003;41674;52.290;-1.474;2023-05-07T04:37:12;17;15;
55754;PMS5003;41674;52.290;-1.474;2023-05-07T04:39:41;17;15;
55754;PMS5003;41674;52.290;-1.474;2023-05-07T04:42:14;21;17;
55754;PMS5003;41674;52.290;-1.474;2023-05-07T04:44:40;16;16;
55754;PMS5003;41674;52.290;-1.474;2023-05-07T04:47:09;18;17;
55754;PMS5003;41674;52.290;-1.474;2023-05-07T04:49:39;19;19;
55754;PMS5003;41674;52.290;-1.474;2023-05-07T04:52:08;14;13;
55754;PMS5003;41674;52.290;-1.474;2023-05-07T04:54:37;14;14;
55754;PMS5003;41674;52.290;-1.474;2023-05-07T04:57:07;16;15;
55754;PMS5003;41674;52.290;-1.474;2023-05-07T04:59:36;16;15;
55754;PMS5003;41674;52.290;-1.474;2023-05-07T05:02:06;16;16;
55754;PMS5003;41674;52.290;-1.474;2023-05-07T05:04:35;20;18;
55754;PMS5003;41674;52.290;-1.474;2023-05-07T05:07:04;15;14;
55754;PMS5003;41674;52.290;-1.474;2023-05-07T05:09:34;16;15;
55754;PMS5003;41674;52.290;-1.474;2023-05-07T05:12:04;14;14;
55754;PMS5003;41674;52.290;-1.474;2023-05-07T05:14:33;14;13;
55754;PMS5003;41674;52.290;-1.474;2023-05-07T05:17:03;19;16;
55754;PMS5003;41674;52.290;-1.474;2023-05-07T05:19:32;19;17;
55754;PMS5003;41674;52.290;-1.474;2023-05-07T05:22:01;14;13;
55754;PMS5003;41674;52.290;-1.474;2023-05-07T05:24:31;21;18;
55754;PMS5003;41674;52.290;-1.474;2023-05-07T05:27:00;19;19;
55754;PMS5003;41674;52.290;-1.474;2023-05-07T05:29:29;16;16;
55754;PMS5003;41674;52.290;-1.474;2023-05-07T05:31:58;20;17;
55754;PMS5003;41674;52.290;-1.474;2023-05-07T05:34:28;18;17;
55754;PMS5003;41674;52.290;-1.474;2023-05-07T05:36:58;22;15;
55754;PMS5003;41674;52.290;-1.474;2023-05-07T05:39:27;17;17;
55754;PMS5003;41674;52.290;-1.474;2023-05-07T05:41:56;14;14;
55754;PMS5003;41674;52.290;-1.474;2023-05-07T05:44:26;15;14;
55754;PMS5003;41674;52.290;-1.474;2023-05-07T05:46:56;18;17;
55754;PMS5003;41674;52.290;-1.474;2023-05-07T05:49:26;24;18;
55754;PMS5003;41674;52.290;-1.474;2023-05-07T05:51:55;20;19;
55754;PMS5003;41674;52.290;-1.474;2023-05-07T05:54:24;17;16;
55754;PMS5003;41674;52.290;-1.474;2023-05-07T05:56:53;20;18;
55754;PMS5003;41674;52.290;-1.474;2023-05-07T05:59:23;20;19;
55754;PMS5003;41674;52.290;-1.474;2023-05-07T06:01:52;20;16;
55754;PMS5003;41674;52.290;-1.474;2023-05-07T06:04:22;18;16;
55754;PMS5003;41674;52.290;-1.474;2023-05-07T06:06:52;24;21;
55754;PMS5003;41674;52.290;-1.474;2023-05-07T06:09:21;26;22;
55754;PMS5003;41674;52.290;-1.474;2023-05-07T06:11:51;19;18;
55754;PMS5003;41674;52.290;-1.474;2023-05-07T06:14:21;20;17;
55754;PMS5003;41674;52.290;-1.474;2023-05-07T06:16:50;17;16;
55754;PMS5003;41674;52.290;-1.474;2023-05-07T06:19:19;22;21;
55754;PMS5003;41674;52.290;-1.474;2023-05-07T06:21:49;24;22;
55754;PMS5003;41674;52.290;-1.474;2023-05-07T06:24:19;23;20;
55754;PMS5003;41674;52.290;-1.474;2023-05-07T06:26:49;21;20;
55754;PMS5003;41674;52.290;-1.474;2023-05-07T06:29:18;19;17;
55754;PMS5003;41674;52.290;-1.474;2023-05-07T06:31:47;18;18;
55754;PMS5003;41674;52.290;-1.474;2023-05-07T06:34:17;20;18;
55754;PMS5003;41674;52.290;-1.474;2023-05-07T06:36:46;25;23;
55754;PMS5003;41674;52.290;-1.474;2023-05-07T06:39:15;22;19;
55754;PMS5003;41674;52.290;-1.474;2023-05-07T06:41:45;21;20;
55754;PMS5003;41674;52.290;-1.474;2023-05-07T06:44:14;20;19;
55754;PMS5003;41674;52.290;-1.474;2023-05-07T06:46:44;21;20;
55754;PMS5003;41674;52.290;-1.474;2023-05-07T06:49:13;24;18;
55754;PMS5003;41674;52.290;-1.474;2023-05-07T06:51:43;20;19;
55754;PMS5003;41674;52.290;-1.474;2023-05-07T06:54:12;17;17;
55754;PMS5003;41674;52.290;-1.474;2023-05-07T06:56:41;21;19;
55754;PMS5003;41674;52.290;-1.474;2023-05-07T06:59:11;20;17;
55754;PMS5003;41674;52.290;-1.474;2023-05-07T07:01:40;19;18;
55754;PMS5003;41674;52.290;-1.474;2023-05-07T07:04:10;22;21;
55754;PMS5003;41674;52.290;-1.474;2023-05-07T07:06:39;22;20;
55754;PMS5003;41674;52.290;-1.474;2023-05-07T07:09:08;18;17;
55754;PMS5003;41674;52.290;-1.474;2023-05-07T07:11:38;20;20;
55754;PMS5003;41674;52.290;-1.474;2023-05-07T07:14:07;21;20;
55754;PMS5003;41674;52.290;-1.474;2023-05-07T07:16:37;19;18;
55754;PMS5003;41674;52.290;-1.474;2023-05-07T07:19:11;20;20;
55754;PMS5003;41674;52.290;-1.474;2023-05-07T07:21:35;22;21;
55754;PMS5003;41674;52.290;-1.474;2023-05-07T07:24:05;25;23;
55754;PMS5003;41674;52.290;-1.474;2023-05-07T07:26:34;29;25;
55754;PMS5003;41674;52.290;-1.474;2023-05-07T07:29:04;23;19;
55754;PMS5003;41674;52.290;-1.474;2023-05-07T07:31:33;21;21;
55754;PMS5003;41674;52.290;-1.474;2023-05-07T07:34:03;27;22;
55754;PMS5003;41674;52.290;-1.474;2023-05-07T07:36:32;23;21;
55754;PMS5003;41674;52.290;-1.474;2023-05-07T07:39:01;25;21;
55754;PMS5003;41674;52.290;-1.474;2023-05-07T07:41:31;23;21;
55754;PMS5003;41674;52.290;-1.474;2023-05-07T07:44:00;23;21;
55754;PMS5003;41674;52.290;-1.474;2023-05-07T07:46:30;22;20;
55754;PMS5003;41674;52.290;-1.474;2023-05-07T07:48:59;22;18;
55754;PMS5003;41674;52.290;-1.474;2023-05-07T07:51:29;24;22;
55754;PMS5003;41674;52.290;-1.474;2023-05-07T07:53:58;15;14;
55754;PMS5003;41674;52.290;-1.474;2023-05-07T07:56:28;17;14;
55754;PMS5003;41674;52.290;-1.474;2023-05-07T07:58:57;16;14;
55754;PMS5003;41674;52.290;-1.474;2023-05-07T08:01:29;16;15;
55754;PMS5003;41674;52.290;-1.474;2023-05-07T08:03:56;17;16;
55754;PMS5003;41674;52.290;-1.474;2023-05-07T08:06:25;20;16;
55754;PMS5003;41674;52.290;-1.474;2023-05-07T08:08:55;15;14;
55754;PMS5003;41674;52.290;-1.474;2023-05-07T08:11:25;20;19;
55754;PMS5003;41674;52.290;-1.474;2023-05-07T08:13:54;24;17;
55754;PMS5003;41674;52.290;-1.474;2023-05-07T08:16:24;17;17;
55754;PMS5003;41674;52.290;-1.474;2023-05-07T08:18:53;17;16;
55754;PMS5003;41674;52.290;-1.474;2023-05-07T08:21:23;25;21;
55754;PMS5003;41674;52.290;-1.474;2023-05-07T08:23:52;15;13;
55754;PMS5003;41674;52.290;-1.474;2023-05-07T08:26:21;17;15;
55754;PMS5003;41674;52.290;-1.474;2023-05-07T08:28:50;18;18;
55754;PMS5003;41674;52.290;-1.474;2023-05-07T08:31:20;17;15;
55754;PMS5003;41674;52.290;-1.474;2023-05-07T08:33:49;19;19;
55754;PMS5003;41674;52.290;-1.474;2023-05-07T08:36:19;19;16;
55754;PMS5003;41674;52.290;-1.474;2023-05-07T08:38:48;17;16;
55754;PMS5003;41674;52.290;-1.474;2023-05-07T08:41:18;21;16;
55754;PMS5003;41674;52.290;-1.474;2023-05-07T08:43:48;21;17;
55754;PMS5003;41674;52.290;-1.474;2023-05-07T08:46:17;17;17;
55754;PMS5003;41674;52.290;-1.474;2023-05-07T08:48:47;21;19;
55754;PMS5003;41674;52.290;-1.474;2023-05-07T08:51:16;17;16;
55754;PMS5003;41674;52.290;-1.474;2023-05-07T08:53:46;20;17;
55754;PMS5003;41674;52.290;-1.474;2023-05-07T08:56:15;18;16;
55754;PMS5003;41674;52.290;-1.474;2023-05-07T08:58:45;17;16;
55754;PMS5003;41674;52.290;-1.474;2023-05-07T09:01:15;15;14;
55754;PMS5003;41674;52.290;-1.474;2023-05-07T09:03:44;18;16;
55754;PMS5003;41674;52.290;-1.474;2023-05-07T09:06:13;15;15;
55754;PMS5003;41674;52.290;-1.474;2023-05-07T09:08:44;15;14;
55754;PMS5003;41674;52.290;-1.474;2023-05-07T09:11:12;18;13;
55754;PMS5003;41674;52.290;-1.474;2023-05-07T09:13:41;15;14;
55754;PMS5003;41674;52.290;-1.474;2023-05-07T09:16:11;15;13;
55754;PMS5003;41674;52.290;-1.474;2023-05-07T09:18:40;14;12;
55754;PMS5003;41674;52.290;-1.474;2023-05-07T09:21:10;17;13;
55754;PMS5003;41674;52.290;-1.474;2023-05-07T09:23:39;13;13;
55754;PMS5003;41674;52.290;-1.474;2023-05-07T09:26:08;14;11;
55754;PMS5003;41674;52.290;-1.474;2023-05-07T09:28:38;16;14;
55754;PMS5003;41674;52.290;-1.474;2023-05-07T09:31:07;12;11;
55754;PMS5003;41674;52.290;-1.474;2023-05-07T09:33:36;14;10;
55754;PMS5003;41674;52.290;-1.474;2023-05-07T09:36:07;14;13;
55754;PMS5003;41674;52.290;-1.474;2023-05-07T09:38:36;12;11;
55754;PMS5003;41674;52.290;-1.474;2023-05-07T09:41:05;10;10;
55754;PMS5003;41674;52.290;-1.474;2023-05-07T09:43:34;10;9;
55754;PMS5003;41674;52.290;-1.474;2023-05-07T09:46:06;10;10;
55754;PMS5003;41674;52.290;-1.474;2023-05-07T09:48:35;10;10;
55754;PMS5003;41674;52.290;-1.474;2023-05-07T09:51:03;11;10;
55754;PMS5003;41674;52.290;-1.474;2023-05-07T09:53:33;9;9;
55754;PMS5003;41674;52.290;-1.474;2023-05-07T09:56:02;8;8;
55754;PMS5003;41674;52.290;-1.474;2023-05-07T09:58:31;11;11;
55754;PMS5003;41674;52.290;-1.474;2023-05-07T10:01:00;9;9;
55754;PMS5003;41674;52.290;-1.474;2023-05-07T10:03:30;8;7;
55754;PMS5003;41674;52.290;-1.474;2023-05-07T10:05:59;10;10;
55754;PMS5003;41674;52.290;-1.474;2023-05-07T10:08:28;7;6;
55754;PMS5003;41674;52.290;-1.474;2023-05-07T10:10:59;9;8;
55754;PMS5003;41674;52.290;-1.474;2023-05-07T10:13:28;7;7;
55754;PMS5003;41674;52.290;-1.474;2023-05-07T10:15:57;6;6;
55754;PMS5003;41674;52.290;-1.474;2023-05-07T10:18:27;6;6;
55754;PMS5003;41674;52.290;-1.474;2023-05-07T10:20:56;7;7;
55754;PMS5003;41674;52.290;-1.474;2023-05-07T10:23:25;6;6;
55754;PMS5003;41674;52.290;-1.474;2023-05-07T10:25:55;5;4;
55754;PMS5003;41674;52.290;-1.474;2023-05-07T10:28:25;5;5;
55754;PMS5003;41674;52.290;-1.474;2023-05-07T10:30:58;5;5;
55754;PMS5003;41674;52.290;-1.474;2023-05-07T10:33:24;5;5;
55754;PMS5003;41674;52.290;-1.474;2023-05-07T10:35:55;6;6;
55754;PMS5003;41674;52.290;-1.474;2023-05-07T10:38:22;6;6;
55754;PMS5003;41674;52.290;-1.474;2023-05-07T10:40:52;4;4;
55754;PMS5003;41674;52.290;-1.474;2023-05-07T10:43:21;4;4;
55754;PMS5003;41674;52.290;-1.474;2023-05-07T10:48:21;6;4;
55754;PMS5003;41674;52.290;-1.474;2023-05-07T10:50:50;4;4;
55754;PMS5003;41674;52.290;-1.474;2023-05-07T10:53:24;3;3;
55754;PMS5003;41674;52.290;-1.474;2023-05-07T10:55:50;6;4;
55754;PMS5003;41674;52.290;-1.474;2023-05-07T10:58:24;3;3;
55754;PMS5003;41674;52.290;-1.474;2023-05-07T11:00:48;3;3;
55754;PMS5003;41674;52.290;-1.474;2023-05-07T11:03:18;2;2;
55754;PMS5003;41674;52.290;-1.474;2023-05-07T11:05:47;3;3;
55754;PMS5003;41674;52.290;-1.474;2023-05-07T11:08:16;2;2;
55754;PMS5003;41674;52.290;-1.474;2023-05-07T11:10:48;4;4;
55754;PMS5003;41674;52.290;-1.474;2023-05-07T11:13:17;4;3;
55754;PMS5003;41674;52.290;-1.474;2023-05-07T11:15:46;2;2;
55754;PMS5003;41674;52.290;-1.474;2023-05-07T11:18:15;3;3;
55754;PMS5003;41674;52.290;-1.474;2023-05-07T11:20:46;2;2;
55754;PMS5003;41674;52.290;-1.474;2023-05-07T11:25:43;4;4;
55754;PMS5003;41674;52.290;-1.474;2023-05-07T11:28:13;4;4;
55754;PMS5003;41674;52.290;-1.474;2023-05-07T11:30:47;4;4;
55754;PMS5003;41674;52.290;-1.474;2023-05-07T11:33:11;5;4;
55754;PMS5003;41674;52.290;-1.474;2023-05-07T11:35:41;4;4;
55754;PMS5003;41674;52.290;-1.474;2023-05-07T11:38:11;5;3;
55754;PMS5003;41674;52.290;-1.474;2023-05-07T11:43:10;3;3;
55754;PMS5003;41674;52.290;-1.474;2023-05-07T11:45:39;3;3;
55754;PMS5003;41674;52.290;-1.474;2023-05-07T11:48:08;4;3;
55754;PMS5003;41674;52.290;-1.474;2023-05-07T11:50:42;2;2;
55754;PMS5003;41674;52.290;-1.474;2023-05-07T11:53:07;4;3;
55754;PMS5003;41674;52.290;-1.474;2023-05-07T11:55:42;4;4;
55754;PMS5003;41674;52.290;-1.474;2023-05-07T11:58:06;3;3;
55754;PMS5003;41674;52.290;-1.474;2023-05-07T12:00:36;3;3;
55754;PMS5003;41674;52.290;-1.474;2023-05-07T12:03:05;5;5;
55754;PMS5003;41674;52.290;-1.474;2023-05-07T12:05:40;4;4;
55754;PMS5003;41674;52.290;-1.474;2023-05-07T12:08:04;5;5;
55754;PMS5003;41674;52.290;-1.474;2023-05-07T12:10:34;4;3;
55754;PMS5003;41674;52.290;-1.474;2023-05-07T12:13:03;2;2;
55754;PMS5003;41674;52.290;-1.474;2023-05-07T12:15:34;6;5;
55754;PMS5003;41674;52.290;-1.474;2023-05-07T12:18:02;8;6;
55754;PMS5003;41674;52.290;-1.474;2023-05-07T12:20:32;3;3;
55754;PMS5003;41674;52.290;-1.474;2023-05-07T12:23:01;3;3;
55754;PMS5003;41674;52.290;-1.474;2023-05-07T12:25:31;3;3;
55754;PMS5003;41674;52.290;-1.474;2023-05-07T12:28:05;6;3;
55754;PMS5003;41674;52.290;-1.474;2023-05-07T12:30:30;4;4;
55754;PMS5003;41674;52.290;-1.474;2023-05-07T12:32:59;4;3;
55754;PMS5003;41674;52.290;-1.474;2023-05-07T12:35:29;3;3;
55754;PMS5003;41674;52.290;-1.474;2023-05-07T12:37:58;4;4;
55754;PMS5003;41674;52.290;-1.474;2023-05-07T12:43:02;6;3;
55754;PMS5003;41674;52.290;-1.474;2023-05-07T12:45:26;3;3;
55754;PMS5003;41674;52.290;-1.474;2023-05-07T12:47:56;4;3;
55754;PMS5003;41674;52.290;-1.474;2023-05-07T12:50:25;3;3;
55754;PMS5003;41674;52.290;-1.474;2023-05-07T12:52:55;3;3;
55754;PMS5003;41674;52.290;-1.474;2023-05-07T12:55:24;2;2;
55754;PMS5003;41674;52.290;-1.474;2023-05-07T12:57:54;3;3;
55754;PMS5003;41674;52.290;-1.474;2023-05-07T13:02:53;3;3;
55754;PMS5003;41674;52.290;-1.474;2023-05-07T13:05:22;3;3;
55754;PMS5003;41674;52.290;-1.474;2023-05-07T13:07:53;4;2;
55754;PMS5003;41674;52.290;-1.474;2023-05-07T13:10:21;6;5;
55754;PMS5003;41674;52.290;-1.474;2023-05-07T13:12:51;2;2;
55754;PMS5003;41674;52.290;-1.474;2023-05-07T13:15:20;2;2;
55754;PMS5003;41674;52.290;-1.474;2023-05-07T13:17:50;2;2;
55754;PMS5003;41674;52.290;-1.474;2023-05-07T13:20:19;4;3;
55754;PMS5003;41674;52.290;-1.474;2023-05-07T13:22:48;3;3;
55754;PMS5003;41674;52.290;-1.474;2023-05-07T13:25:18;2;2;
55754;PMS5003;41674;52.290;-1.474;2023-05-07T13:27:48;4;2;
55754;PMS5003;41674;52.290;-1.474;2023-05-07T13:30:17;3;3;
55754;PMS5003;41674;52.290;-1.474;2023-05-07T13:32:47;2;2;
55754;PMS5003;41674;52.290;-1.474;2023-05-07T13:35:16;5;3;
55754;PMS5003;41674;52.290;-1.474;2023-05-07T13:37:46;3;3;
55754;PMS5003;41674;52.290;-1.474;2023-05-07T13:40:15;3;2;
55754;PMS5003;41674;52.290;-1.474;2023-05-07T13:42:45;3;3;
55754;PMS5003;41674;52.290;-1.474;2023-05-07T13:45:14;5;5;
55754;PMS5003;41674;52.290;-1.474;2023-05-07T13:47:44;3;3;
55754;PMS5003;41674;52.290;-1.474;2023-05-07T13:50:13;3;3;
55754;PMS5003;41674;52.290;-1.474;2023-05-07T13:52:43;1;1;
55754;PMS5003;41674;52.290;-1.474;2023-05-07T13:55:12;2;2;
55754;PMS5003;41674;52.290;-1.474;2023-05-07T13:57:41;5;3;
55754;PMS5003;41674;52.290;-1.474;2023-05-07T14:00:12;4;2;
55754;PMS5003;41674;52.290;-1.474;2023-05-07T14:02:40;3;3;
55754;PMS5003;41674;52.290;-1.474;2023-05-07T14:05:10;3;3;
55754;PMS5003;41674;52.290;-1.474;2023-05-07T14:07:39;2;2;
55754;PMS5003;41674;52.290;-1.474;2023-05-07T14:10:10;3;3;
55754;PMS5003;41674;52.290;-1.474;2023-05-07T14:12:38;5;3;
55754;PMS5003;41674;52.290;-1.474;2023-05-07T14:15:08;2;2;
55754;PMS5003;41674;52.290;-1.474;2023-05-07T14:17:38;3;3;
55754;PMS5003;41674;52.290;-1.474;2023-05-07T14:20:07;3;3;
55754;PMS5003;41674;52.290;-1.474;2023-05-07T14:22:36;3;3;
55754;PMS5003;41674;52.290;-1.474;2023-05-07T14:25:06;2;2;
55754;PMS5003;41674;52.290;-1.474;2023-05-07T14:27:35;3;2;
55754;PMS5003;41674;52.290;-1.474;2023-05-07T14:30:05;3;3;
55754;PMS5003;41674;52.290;-1.474;2023-05-07T14:32:34;3;3;
55754;PMS5003;41674;52.290;-1.474;2023-05-07T14:35:04;3;3;
55754;PMS5003;41674;52.290;-1.474;2023-05-07T14:37:33;2;2;
55754;PMS5003;41674;52.290;-1.474;2023-05-07T14:40:02;2;2;
55754;PMS5003;41674;52.290;-1.474;2023-05-07T14:42:32;4;3;
55754;PMS5003;41674;52.290;-1.474;2023-05-07T14:45:01;4;3;
55754;PMS5003;41674;52.290;-1.474;2023-05-07T14:47:31;3;2;
55754;PMS5003;41674;52.290;-1.474;2023-05-07T14:50:00;4;4;
55754;PMS5003;41674;52.290;-1.474;2023-05-07T14:52:29;2;2;
55754;PMS5003;41674;52.290;-1.474;2023-05-07T14:54:59;3;3;
55754;PMS5003;41674;52.290;-1.474;2023-05-07T14:57:28;5;3;
55754;PMS5003;41674;52.290;-1.474;2023-05-07T14:59:58;3;3;
55754;PMS5003;41674;52.290;-1.474;2023-05-07T15:02:27;1;1;
55754;PMS5003;41674;52.290;-1.474;2023-05-07T15:04:57;3;3;
55754;PMS5003;41674;52.290;-1.474;2023-05-07T15:07:26;2;2;
55754;PMS5003;41674;52.290;-1.474;2023-05-07T15:09:55;5;2;
55754;PMS5003;41674;52.290;-1.474;2023-05-07T15:12:25;2;2;
55754;PMS5003;41674;52.290;-1.474;2023-05-07T15:14:54;2;2;
55754;PMS5003;41674;52.290;-1.474;2023-05-07T15:17:24;3;3;
55754;PMS5003;41674;52.290;-1.474;2023-05-07T15:19:53;3;3;
55754;PMS5003;41674;52.290;-1.474;2023-05-07T15:22:23;2;1;
55754;PMS5003;41674;52.290;-1.474;2023-05-07T15:24:52;2;2;
55754;PMS5003;41674;52.290;-1.474;2023-05-07T15:27:22;3;3;
55754;PMS5003;41674;52.290;-1.474;2023-05-07T15:29:56;2;2;
55754;PMS5003;41674;52.290;-1.474;2023-05-07T15:32:21;3;2;
55754;PMS5003;41674;52.290;-1.474;2023-05-07T15:34:50;2;2;
55754;PMS5003;41674;52.290;-1.474;2023-05-07T15:37:20;4;4;
55754;PMS5003;41674;52.290;-1.474;2023-05-07T15:39:50;2;2;
55754;PMS5003;41674;52.290;-1.474;2023-05-07T15:42:18;3;3;
55754;PMS5003;41674;52.290;-1.474;2023-05-07T15:44:48;3;2;
55754;PMS5003;41674;52.290;-1.474;2023-05-07T15:47:17;2;2;
55754;PMS5003;41674;52.290;-1.474;2023-05-07T15:49:47;4;4;
55754;PMS5003;41674;52.290;-1.474;2023-05-07T15:52:16;3;3;
55754;PMS5003;41674;52.290;-1.474;2023-05-07T15:57:15;5;4;
55754;PMS5003;41674;52.290;-1.474;2023-05-07T15:59:45;5;5;
55754;PMS5003;41674;52.290;-1.474;2023-05-07T16:02:14;3;3;
55754;PMS5003;41674;52.290;-1.474;2023-05-07T16:04:44;4;4;
55754;PMS5003;41674;52.290;-1.474;2023-05-07T16:07:13;3;3;
55754;PMS5003;41674;52.290;-1.474;2023-05-07T16:09:43;5;3;
55754;PMS5003;41674;52.290;-1.474;2023-05-07T16:12:17;1;1;
55754;PMS5003;41674;52.290;-1.474;2023-05-07T16:14:42;2;2;
55754;PMS5003;41674;52.290;-1.474;2023-05-07T16:17:11;3;1;
55754;PMS5003;41674;52.290;-1.474;2023-05-07T16:19:41;5;3;
55754;PMS5003;41674;52.290;-1.474;2023-05-07T16:22:10;4;4;
55754;PMS5003;41674;52.290;-1.474;2023-05-07T16:24:39;2;2;
55754;PMS5003;41674;52.290;-1.474;2023-05-07T16:27:09;4;4;
55754;PMS5003;41674;52.290;-1.474;2023-05-07T16:29:38;3;3;
55754;PMS5003;41674;52.290;-1.474;2023-05-07T16:32:13;3;3;
55754;PMS5003;41674;52.290;-1.474;2023-05-07T16:34:37;5;4;
55754;PMS5003;41674;52.290;-1.474;2023-05-07T16:37:07;3;3;
55754;PMS5003;41674;52.290;-1.474;2023-05-07T16:39:36;2;2;
55754;PMS5003;41674;52.290;-1.474;2023-05-07T16:42:06;3;3;
55754;PMS5003;41674;52.290;-1.474;2023-05-07T16:44:35;2;2;